Energy Triton — 3FLG8 — position and weather

sailwx.info

Track history (hours):
 
Tides and Currents Weather Stations Pressure Air Temp Water Temp Dewpoint Dewpoint Depression Visibility Wind Speed Wind Dir Waves Ship Positions

Energy Triton

Last reported at 2018-Apr-11 17:36 UTC. Time now 2018-Apr-23 05:21 UTC.
Position N 31°51' E 128°48'.
Warning: this ship's position is 11 days out of date.

Length 229 m; draft 14.1 m.

Type: Ship. MMSI: 373327000.

Date/timePositionNaut miles runAvg speedWind from/ knotsBaromVisibWave heightAir tempDewpointWater temp
2018-Apr-11 17:36N 31°51' E 128°48'511.6
2018-Apr-11 17:10N 31°56' E 128°46'212.0
2018-Apr-11 17:01N 31°57' E 128°46'4812.6
2018-Apr-11 13:10N 32°41' E 128°21'312.6
2018-Apr-11 12:55N 32°44' E 128°21'1712.6
2018-Apr-11 11:32N 33°01' E 128°19'012.4
2018-Apr-11 11:30N 33°02' E 128°19'612.2
2018-Apr-11 11:00N 33°08' E 128°16'612.1
2018-Apr-11 10:30N 33°13' E 128°14'711.9
2018-Apr-11 09:56N 33°20' E 128°13'1312.1
2018-Apr-11 08:53N 33°33' E 128°10'  
2018-Apr-08 02:03N 33°32' E 129°37'46 6.3
2018-Apr-07 18:46N 34°15' E 129°53'4 6.8
2018-Apr-07 18:15N 34°18' E 129°56'10 7.4
2018-Apr-07 16:55N 34°25' E 130°04'4 8.7
2018-Apr-07 16:30N 34°27' E 130°07'5 8.2
2018-Apr-07 15:54N 34°30' E 130°12'  
2018-Apr-05 04:04N 41°17' E 140°11'1 8.3
2018-Apr-05 03:55N 41°18' E 140°12'3 8.3
2018-Apr-05 03:30N 41°20' E 140°15'4 7.4
2018-Apr-05 03:00N 41°22' E 140°20'5 8.9
2018-Apr-05 02:29N 41°24' E 140°25'4 9.2
2018-Apr-05 02:00N 41°27' E 140°30'5 9.3
2018-Apr-05 01:29N 41°29' E 140°36'4 9.0
2018-Apr-05 01:00N 41°31' E 140°41'5 9.9
2018-Apr-05 00:30N 41°34' E 140°46'5 9.3
2018-Apr-05 00:00N 41°37' E 140°51'4 8.9
2018-Apr-04 23:30N 41°38' E 140°57'5 9.2
2018-Apr-04 23:00N 41°38' E 141°03'511.0
2018-Apr-04 22:30N 41°39' E 141°10'611.5
2018-Apr-04 22:00N 41°40' E 141°18'510.5
2018-Apr-04 21:30N 41°40' E 141°25'5 9.7
2018-Apr-04 21:00N 41°40' E 141°32'510.0
2018-Apr-04 20:30N 41°40' E 141°38'  
Track history (hours):
 
Tides and Currents Weather Stations Pressure Air Temp Water Temp Dewpoint Dewpoint Depression Visibility Wind Speed Wind Dir Waves Ship Positions

Energy Triton

Last reported at 2018-Apr-11 17:36 UTC. Time now 2018-Apr-23 05:21 UTC.
Position N 31°51' E 128°48'.
Warning: this ship's position is 11 days out of date.

Length 229 m; draft 14.1 m.

Type: Ship. MMSI: 373327000.

Date/timePositionNaut miles runAvg speedWind from/ knotsBaromVisibWave heightAir tempDewpointWater temp
2018-Apr-11 17:36N 31°51' E 128°48'511.6
2018-Apr-11 17:10N 31°56' E 128°46'212.0
2018-Apr-11 17:01N 31°57' E 128°46'4812.6
2018-Apr-11 13:10N 32°41' E 128°21'312.6
2018-Apr-11 12:55N 32°44' E 128°21'1712.6
2018-Apr-11 11:32N 33°01' E 128°19'012.4
2018-Apr-11 11:30N 33°02' E 128°19'612.2
2018-Apr-11 11:00N 33°08' E 128°16'612.1
2018-Apr-11 10:30N 33°13' E 128°14'711.9
2018-Apr-11 09:56N 33°20' E 128°13'1312.1
2018-Apr-11 08:53N 33°33' E 128°10'  
2018-Apr-08 02:03N 33°32' E 129°37'46 6.3
2018-Apr-07 18:46N 34°15' E 129°53'4 6.8
2018-Apr-07 18:15N 34°18' E 129°56'10 7.4
2018-Apr-07 16:55N 34°25' E 130°04'4 8.7
2018-Apr-07 16:30N 34°27' E 130°07'5 8.2
2018-Apr-07 15:54N 34°30' E 130°12'  
2018-Apr-05 04:04N 41°17' E 140°11'1 8.3
2018-Apr-05 03:55N 41°18' E 140°12'3 8.3
2018-Apr-05 03:30N 41°20' E 140°15'4 7.4
2018-Apr-05 03:00N 41°22' E 140°20'5 8.9
2018-Apr-05 02:29N 41°24' E 140°25'4 9.2
2018-Apr-05 02:00N 41°27' E 140°30'5 9.3
2018-Apr-05 01:29N 41°29' E 140°36'4 9.0
2018-Apr-05 01:00N 41°31' E 140°41'5 9.9
2018-Apr-05 00:30N 41°34' E 140°46'5 9.3
2018-Apr-05 00:00N 41°37' E 140°51'4 8.9
2018-Apr-04 23:30N 41°38' E 140°57'5 9.2
2018-Apr-04 23:00N 41°38' E 141°03'511.0
2018-Apr-04 22:30N 41°39' E 141°10'611.5
2018-Apr-04 22:00N 41°40' E 141°18'510.5
2018-Apr-04 21:30N 41°40' E 141°25'5 9.7
2018-Apr-04 21:00N 41°40' E 141°32'510.0
2018-Apr-04 20:30N 41°40' E 141°38'  

Dump ship's entire track history